sensor_id;sensor_type;location;lat;lon;timestamp;pressure;altitude;pressure_sealevel;temperature;humidity
76205;BME280;64986;55.672;37.628;2023-04-03T00:00:09;99225.59;;;9.05;63.54
76205;BME280;64986;55.672;37.628;2023-04-03T00:02:35;99222.94;;;9.05;63.45
76205;BME280;64986;55.672;37.628;2023-04-03T00:05:00;99221.75;;;9.01;63.64
76205;BME280;64986;55.672;37.628;2023-04-03T00:07:26;99228.03;;;9.00;63.56
76205;BME280;64986;55.672;37.628;2023-04-03T00:09:52;99231.03;;;9.04;63.70
76205;BME280;64986;55.672;37.628;2023-04-03T00:12:17;99228.03;;;9.00;63.67
76205;BME280;64986;55.672;37.628;2023-04-03T00:14:43;99237.88;;;8.98;63.53
76205;BME280;64986;55.672;37.628;2023-04-03T00:17:08;99227.38;;;8.98;64.13
76205;BME280;64986;55.672;37.628;2023-04-03T00:19:34;99229.22;;;8.98;64.02
76205;BME280;64986;55.672;37.628;2023-04-03T00:22:00;99234.88;;;8.95;63.63
76205;BME280;64986;55.672;37.628;2023-04-03T00:24:25;99237.69;;;8.93;63.85
76205;BME280;64986;55.672;37.628;2023-04-03T00:26:51;99234.84;;;8.88;63.56
76205;BME280;64986;55.672;37.628;2023-04-03T00:29:16;99235.44;;;8.83;63.72
76205;BME280;64986;55.672;37.628;2023-04-03T00:31:42;99229.81;;;8.80;63.64
76205;BME280;64986;55.672;37.628;2023-04-03T00:34:07;99233.41;;;8.72;63.95
76205;BME280;64986;55.672;37.628;2023-04-03T00:36:33;99230.78;;;8.66;63.86
76205;BME280;64986;55.672;37.628;2023-04-03T00:38:58;99245.13;;;8.63;64.09
76205;BME280;64986;55.672;37.628;2023-04-03T00:41:23;99234.59;;;8.56;64.39
76205;BME280;64986;55.672;37.628;2023-04-03T00:43:50;99237.00;;;8.51;64.90
76205;BME280;64986;55.672;37.628;2023-04-03T00:46:16;99235.56;;;8.42;64.90
76205;BME280;64986;55.672;37.628;2023-04-03T00:48:44;99236.94;;;8.38;65.14
76205;BME280;64986;55.672;37.628;2023-04-03T00:51:14;99238.97;;;8.36;65.15
76205;BME280;64986;55.672;37.628;2023-04-03T00:53:47;99239.72;;;8.30;65.33
76205;BME280;64986;55.672;37.628;2023-04-03T00:56:15;99227.56;;;8.22;65.41
76205;BME280;64986;55.672;37.628;2023-04-03T00:58:50;99232.41;;;8.19;65.65
76205;BME280;64986;55.672;37.628;2023-04-03T01:01:20;99226.94;;;8.14;65.70
76205;BME280;64986;55.672;37.628;2023-04-03T01:03:48;99234.41;;;8.10;66.08
76205;BME280;64986;55.672;37.628;2023-04-03T01:06:16;99231.78;;;8.10;66.28
76205;BME280;64986;55.672;37.628;2023-04-03T01:08:41;99223.06;;;8.03;66.84
76205;BME280;64986;55.672;37.628;2023-04-03T01:11:07;99233.16;;;8.06;66.42
76205;BME280;64986;55.672;37.628;2023-04-03T01:13:33;99231.53;;;8.05;66.40
76205;BME280;64986;55.672;37.628;2023-04-03T01:16:04;99230.34;;;8.07;67.15
76205;BME280;64986;55.672;37.628;2023-04-03T01:18:30;99234.34;;;8.03;67.09
76205;BME280;64986;55.672;37.628;2023-04-03T01:26:34;99232.50;;;7.97;66.44
76205;BME280;64986;55.672;37.628;2023-04-03T01:29:01;99235.53;;;7.94;66.96
76205;BME280;64986;55.672;37.628;2023-04-03T01:34:11;99235.50;;;7.88;66.44
76205;BME280;64986;55.672;37.628;2023-04-03T01:36:36;99238.31;;;7.86;67.07
76205;BME280;64986;55.672;37.628;2023-04-03T01:39:02;99242.31;;;7.82;66.89
76205;BME280;64986;55.672;37.628;2023-04-03T01:41:28;99235.66;;;7.79;66.74
76205;BME280;64986;55.672;37.628;2023-04-03T01:43:54;99235.00;;;7.77;66.99
76205;BME280;64986;55.672;37.628;2023-04-03T01:46:20;99241.03;;;7.71;66.69
76205;BME280;64986;55.672;37.628;2023-04-03T01:48:48;99239.78;;;7.67;66.70
76205;BME280;64986;55.672;37.628;2023-04-03T01:51:14;99234.50;;;7.61;66.85
76205;BME280;64986;55.672;37.628;2023-04-03T01:53:39;99235.09;;;7.56;67.06
76205;BME280;64986;55.672;37.628;2023-04-03T01:56:05;99229.81;;;7.49;67.60
76205;BME280;64986;55.672;37.628;2023-04-03T01:58:31;99232.38;;;7.43;67.51
76205;BME280;64986;55.672;37.628;2023-04-03T02:00:56;99235.94;;;7.35;68.23
76205;BME280;64986;55.672;37.628;2023-04-03T02:03:22;99233.09;;;7.30;68.21
76205;BME280;64986;55.672;37.628;2023-04-03T02:05:48;99232.66;;;7.27;68.51
76205;BME280;64986;55.672;37.628;2023-04-03T02:08:13;99231.41;;;7.22;68.57
76205;BME280;64986;55.672;37.628;2023-04-03T02:10:39;99241.06;;;7.22;68.63
76205;BME280;64986;55.672;37.628;2023-04-03T02:13:05;99234.78;;;7.16;68.62
76205;BME280;64986;55.672;37.628;2023-04-03T02:15:31;99237.03;;;7.19;68.59
76205;BME280;64986;55.672;37.628;2023-04-03T02:17:56;99233.59;;;7.19;68.54
76205;BME280;64986;55.672;37.628;2023-04-03T02:20:22;99236.22;;;7.19;68.41
76205;BME280;64986;55.672;37.628;2023-04-03T02:22:47;99237.03;;;7.19;69.22
76205;BME280;64986;55.672;37.628;2023-04-03T02:25:13;99240.47;;;7.20;68.42
76205;BME280;64986;55.672;37.628;2023-04-03T02:27:39;99236.66;;;7.22;68.41
76205;BME280;64986;55.672;37.628;2023-04-03T02:30:05;99238.25;;;7.23;68.76
76205;BME280;64986;55.672;37.628;2023-04-03T02:32:31;99236.41;;;7.17;68.91
76205;BME280;64986;55.672;37.628;2023-04-03T02:34:57;99240.00;;;7.16;68.85
76205;BME280;64986;55.672;37.628;2023-04-03T02:37:22;99243.44;;;7.17;68.93
76205;BME280;64986;55.672;37.628;2023-04-03T02:39:48;99246.25;;;7.15;68.60
76205;BME280;64986;55.672;37.628;2023-04-03T02:42:13;99253.50;;;7.13;68.21
76205;BME280;64986;55.672;37.628;2023-04-03T02:44:39;99242.56;;;7.10;69.30
76205;BME280;64986;55.672;37.628;2023-04-03T02:47:05;99237.47;;;7.02;69.14
76205;BME280;64986;55.672;37.628;2023-04-03T02:49:30;99240.72;;;7.04;69.31
76205;BME280;64986;55.672;37.628;2023-04-03T02:51:56;99249.75;;;7.01;69.20
76205;BME280;64986;55.672;37.628;2023-04-03T02:54:22;99251.75;;;6.99;68.93
76205;BME280;64986;55.672;37.628;2023-04-03T02:56:49;99249.31;;;6.98;68.87
76205;BME280;64986;55.672;37.628;2023-04-03T02:59:14;99253.94;;;6.95;68.81
76205;BME280;64986;55.672;37.628;2023-04-03T03:01:40;99247.44;;;6.91;69.53
76205;BME280;64986;55.672;37.628;2023-04-03T03:04:05;99251.06;;;6.90;69.77
76205;BME280;64986;55.672;37.628;2023-04-03T03:06:31;99249.19;;;6.84;69.74
76205;BME280;64986;55.672;37.628;2023-04-03T03:08:56;99252.34;;;6.80;69.81
76205;BME280;64986;55.672;37.628;2023-04-03T03:11:22;99246.44;;;6.71;69.97
76205;BME280;64986;55.672;37.628;2023-04-03T03:13:47;99254.66;;;6.68;69.86
76205;BME280;64986;55.672;37.628;2023-04-03T03:16:13;99261.09;;;6.65;69.36
76205;BME280;64986;55.672;37.628;2023-04-03T03:18:38;99257.00;;;6.63;69.80
76205;BME280;64986;55.672;37.628;2023-04-03T03:21:04;99263.25;;;6.62;69.93
76205;BME280;64986;55.672;37.628;2023-04-03T03:23:31;99256.59;;;6.59;69.69
76205;BME280;64986;55.672;37.628;2023-04-03T03:25:59;99257.75;;;6.57;69.81
76205;BME280;64986;55.672;37.628;2023-04-03T03:28:25;99252.50;;;6.57;69.81
76205;BME280;64986;55.672;37.628;2023-04-03T03:30:51;99256.94;;;6.56;69.92
76205;BME280;64986;55.672;37.628;2023-04-03T03:33:17;99263.78;;;6.57;70.27
76205;BME280;64986;55.672;37.628;2023-04-03T03:35:43;99258.38;;;6.59;70.64
76205;BME280;64986;55.672;37.628;2023-04-03T03:38:09;99255.13;;;6.57;70.40
76205;BME280;64986;55.672;37.628;2023-04-03T03:40:35;99260.09;;;6.66;70.25
76205;BME280;64986;55.672;37.628;2023-04-03T03:43:00;99267.53;;;6.70;69.86
76205;BME280;64986;55.672;37.628;2023-04-03T03:45:26;99261.31;;;6.71;69.79
76205;BME280;64986;55.672;37.628;2023-04-03T03:47:52;99265.19;;;6.75;70.13
76205;BME280;64986;55.672;37.628;2023-04-03T03:50:17;99262.38;;;6.76;69.90
76205;BME280;64986;55.672;37.628;2023-04-03T03:52:43;99260.19;;;6.80;69.92
76205;BME280;64986;55.672;37.628;2023-04-03T03:55:08;99258.41;;;6.80;70.09
76205;BME280;64986;55.672;37.628;2023-04-03T03:57:34;99255.63;;;6.82;69.76
76205;BME280;64986;55.672;37.628;2023-04-03T04:00:00;99258.03;;;6.83;70.15
76205;BME280;64986;55.672;37.628;2023-04-03T04:02:25;99253.00;;;6.82;69.93
76205;BME280;64986;55.672;37.628;2023-04-03T04:04:51;99263.88;;;6.85;69.88
76205;BME280;64986;55.672;37.628;2023-04-03T04:07:16;99258.84;;;6.84;69.94
76205;BME280;64986;55.672;37.628;2023-04-03T04:09:42;99262.88;;;6.86;70.30
76205;BME280;64986;55.672;37.628;2023-04-03T04:12:07;99269.00;;;6.93;70.16
76205;BME280;64986;55.672;37.628;2023-04-03T04:14:33;99264.56;;;6.94;69.95
76205;BME280;64986;55.672;37.628;2023-04-03T04:16:58;99275.72;;;7.03;69.89
76205;BME280;64986;55.672;37.628;2023-04-03T04:19:24;99275.16;;;7.07;70.17
76205;BME280;64986;55.672;37.628;2023-04-03T04:21:50;99274.16;;;7.08;70.17
76205;BME280;64986;55.672;37.628;2023-04-03T04:24:15;99271.00;;;7.13;69.98
76205;BME280;64986;55.672;37.628;2023-04-03T04:26:41;99278.53;;;7.22;69.23
76205;BME280;64986;55.672;37.628;2023-04-03T04:29:09;99278.19;;;7.32;69.22
76205;BME280;64986;55.672;37.628;2023-04-03T04:31:34;99275.44;;;7.40;68.91
76205;BME280;64986;55.672;37.628;2023-04-03T04:34:00;99276.31;;;7.47;68.86
76205;BME280;64986;55.672;37.628;2023-04-03T04:36:25;99276.41;;;7.61;68.76
76205;BME280;64986;55.672;37.628;2023-04-03T04:38:51;99278.13;;;7.75;68.77
76205;BME280;64986;55.672;37.628;2023-04-03T04:41:20;99275.41;;;7.90;68.21
76205;BME280;64986;55.672;37.628;2023-04-03T04:43:50;99276.09;;;8.05;67.68
76205;BME280;64986;55.672;37.628;2023-04-03T04:46:17;99268.91;;;8.20;67.18
76205;BME280;64986;55.672;37.628;2023-04-03T04:48:43;99276.84;;;8.33;66.53
76205;BME280;64986;55.672;37.628;2023-04-03T04:51:09;99281.59;;;8.51;66.07
76205;BME280;64986;55.672;37.628;2023-04-03T04:53:35;99288.72;;;8.64;65.25
76205;BME280;64986;55.672;37.628;2023-04-03T04:56:01;99288.94;;;8.76;64.79
76205;BME280;64986;55.672;37.628;2023-04-03T04:58:26;99278.47;;;8.89;64.67
76205;BME280;64986;55.672;37.628;2023-04-03T05:01:05;99283.97;;;9.14;63.96
76205;BME280;64986;55.672;37.628;2023-04-03T05:03:32;99282.94;;;9.22;63.61
76205;BME280;64986;55.672;37.628;2023-04-03T05:05:58;99282.78;;;9.30;62.85
76205;BME280;64986;55.672;37.628;2023-04-03T05:08:23;99280.94;;;9.43;62.64
76205;BME280;64986;55.672;37.628;2023-04-03T05:10:49;99280.56;;;9.53;61.98
76205;BME280;64986;55.672;37.628;2023-04-03T05:13:15;99289.44;;;9.65;61.83
76205;BME280;64986;55.672;37.628;2023-04-03T05:15:41;99279.94;;;9.78;61.45
76205;BME280;64986;55.672;37.628;2023-04-03T05:18:06;99277.69;;;9.81;60.96
76205;BME280;64986;55.672;37.628;2023-04-03T05:20:33;99279.91;;;9.84;60.64
76205;BME280;64986;55.672;37.628;2023-04-03T05:22:58;99282.53;;;9.91;61.08
76205;BME280;64986;55.672;37.628;2023-04-03T05:25:24;99285.19;;;9.91;61.04
76205;BME280;64986;55.672;37.628;2023-04-03T05:27:50;99285.34;;;9.89;60.79
76205;BME280;64986;55.672;37.628;2023-04-03T05:30:16;99278.28;;;9.90;60.74
76205;BME280;64986;55.672;37.628;2023-04-03T05:32:42;99286.59;;;9.87;60.53
76205;BME280;64986;55.672;37.628;2023-04-03T05:35:08;99284.16;;;9.79;60.60
76205;BME280;64986;55.672;37.628;2023-04-03T05:37:34;99285.19;;;9.71;60.51
76205;BME280;64986;55.672;37.628;2023-04-03T05:39:59;99289.22;;;9.67;60.77
76205;BME280;64986;55.672;37.628;2023-04-03T05:42:25;99288.41;;;9.66;60.71
76205;BME280;64986;55.672;37.628;2023-04-03T05:44:51;99286.22;;;9.63;61.02
76205;BME280;64986;55.672;37.628;2023-04-03T05:47:17;99293.47;;;9.74;60.80
76205;BME280;64986;55.672;37.628;2023-04-03T05:49:43;99296.09;;;9.81;60.79
76205;BME280;64986;55.672;37.628;2023-04-03T05:52:29;99295.69;;;9.91;60.04
76205;BME280;64986;55.672;37.628;2023-04-03T05:54:55;99300.53;;;9.87;59.86
76205;BME280;64986;55.672;37.628;2023-04-03T05:57:20;99295.06;;;9.82;59.86
76205;BME280;64986;55.672;37.628;2023-04-03T05:59:46;99305.78;;;9.94;60.25
76205;BME280;64986;55.672;37.628;2023-04-03T06:02:17;99306.81;;;9.93;59.58
76205;BME280;64986;55.672;37.628;2023-04-03T06:04:43;99313.69;;;9.94;59.58
76205;BME280;64986;55.672;37.628;2023-04-03T06:07:14;99313.25;;;10.04;59.47
76205;BME280;64986;55.672;37.628;2023-04-03T06:09:41;99314.25;;;10.16;59.32
76205;BME280;64986;55.672;37.628;2023-04-03T06:12:07;99318.06;;;10.26;59.04
76205;BME280;64986;55.672;37.628;2023-04-03T06:14:32;99317.47;;;10.38;58.53
76205;BME280;64986;55.672;37.628;2023-04-03T06:16:58;99317.00;;;10.54;57.98
76205;BME280;64986;55.672;37.628;2023-04-03T06:19:24;99319.56;;;10.67;58.31
76205;BME280;64986;55.672;37.628;2023-04-03T06:21:51;99325.38;;;10.82;58.13
76205;BME280;64986;55.672;37.628;2023-04-03T06:24:17;99323.28;;;10.98;57.94
76205;BME280;64986;55.672;37.628;2023-04-03T06:26:43;99325.00;;;11.10;56.91
76205;BME280;64986;55.672;37.628;2023-04-03T06:29:09;99328.22;;;11.19;56.63
76205;BME280;64986;55.672;37.628;2023-04-03T06:31:35;99312.81;;;11.16;56.32
76205;BME280;64986;55.672;37.628;2023-04-03T06:34:02;99314.13;;;11.32;56.74
76205;BME280;64986;55.672;37.628;2023-04-03T06:36:28;99308.75;;;11.45;56.69
76205;BME280;64986;55.672;37.628;2023-04-03T06:38:54;99325.66;;;11.62;56.43
76205;BME280;64986;55.672;37.628;2023-04-03T06:41:20;99322.69;;;11.77;55.55
76205;BME280;64986;55.672;37.628;2023-04-03T06:43:46;99315.00;;;12.01;55.30
76205;BME280;64986;55.672;37.628;2023-04-03T06:46:17;99318.41;;;12.26;54.63
76205;BME280;64986;55.672;37.628;2023-04-03T06:48:44;99316.34;;;12.46;54.47
76205;BME280;64986;55.672;37.628;2023-04-03T06:53:50;99317.63;;;12.92;53.28
76205;BME280;64986;55.672;37.628;2023-04-03T06:56:16;99320.84;;;13.06;53.05
76205;BME280;64986;55.672;37.628;2023-04-03T06:58:43;99314.97;;;13.22;52.88
76205;BME280;64986;55.672;37.628;2023-04-03T07:01:10;99320.19;;;13.52;52.21
76205;BME280;64986;55.672;37.628;2023-04-03T07:03:36;99314.72;;;13.77;51.42
76205;BME280;64986;55.672;37.628;2023-04-03T07:06:03;99310.69;;;13.98;50.99
76205;BME280;64986;55.672;37.628;2023-04-03T07:08:29;99320.78;;;14.25;50.36
76205;BME280;64986;55.672;37.628;2023-04-03T07:10:54;99316.88;;;14.27;50.15
76205;BME280;64986;55.672;37.628;2023-04-03T07:13:20;99309.03;;;14.44;49.73
76205;BME280;64986;55.672;37.628;2023-04-03T07:15:46;99312.75;;;14.71;48.96
76205;BME280;64986;55.672;37.628;2023-04-03T07:18:11;99314.44;;;14.89;48.82
76205;BME280;64986;55.672;37.628;2023-04-03T07:20:38;99317.38;;;15.05;48.40
76205;BME280;64986;55.672;37.628;2023-04-03T07:23:03;99321.91;;;15.21;47.81
76205;BME280;64986;55.672;37.628;2023-04-03T07:25:29;99318.22;;;15.39;47.25
76205;BME280;64986;55.672;37.628;2023-04-03T07:27:55;99308.91;;;15.53;46.48
76205;BME280;64986;55.672;37.628;2023-04-03T07:30:21;99318.97;;;15.68;46.37
76205;BME280;64986;55.672;37.628;2023-04-03T07:32:47;99319.47;;;15.81;45.89
76205;BME280;64986;55.672;37.628;2023-04-03T07:35:12;99323.31;;;15.91;45.67
76205;BME280;64986;55.672;37.628;2023-04-03T07:37:38;99326.19;;;15.89;45.39
76205;BME280;64986;55.672;37.628;2023-04-03T07:40:04;99324.66;;;15.93;45.97
76205;BME280;64986;55.672;37.628;2023-04-03T07:42:31;99326.59;;;15.98;45.42
76205;BME280;64986;55.672;37.628;2023-04-03T07:44:56;99324.09;;;15.91;45.07
76205;BME280;64986;55.672;37.628;2023-04-03T07:47:22;99324.19;;;15.96;45.42
76205;BME280;64986;55.672;37.628;2023-04-03T07:49:47;99333.25;;;16.00;45.26
76205;BME280;64986;55.672;37.628;2023-04-03T07:52:13;99324.75;;;15.98;45.51
76205;BME280;64986;55.672;37.628;2023-04-03T07:54:41;99327.00;;;15.90;45.10
76205;BME280;64986;55.672;37.628;2023-04-03T07:57:06;99327.88;;;15.78;45.54
76205;BME280;64986;55.672;37.628;2023-04-03T07:59:32;99326.28;;;15.77;45.46
76205;BME280;64986;55.672;37.628;2023-04-03T08:01:58;99334.56;;;15.81;45.33
76205;BME280;64986;55.672;37.628;2023-04-03T08:04:23;99329.03;;;15.82;44.39
76205;BME280;64986;55.672;37.628;2023-04-03T08:06:49;99333.78;;;15.80;44.54
76205;BME280;64986;55.672;37.628;2023-04-03T08:09:15;99331.69;;;15.82;44.41
76205;BME280;64986;55.672;37.628;2023-04-03T08:11:41;99327.47;;;15.87;44.07
76205;BME280;64986;55.672;37.628;2023-04-03T08:14:06;99332.06;;;15.91;44.03
76205;BME280;64986;55.672;37.628;2023-04-03T08:16:32;99335.59;;;15.97;44.06
76205;BME280;64986;55.672;37.628;2023-04-03T08:18:58;99331.41;;;16.01;43.96
76205;BME280;64986;55.672;37.628;2023-04-03T08:21:24;99333.09;;;16.07;43.81
76205;BME280;64986;55.672;37.628;2023-04-03T08:23:50;99333.16;;;16.12;43.94
76205;BME280;64986;55.672;37.628;2023-04-03T08:26:18;99335.06;;;16.17;43.58
76205;BME280;64986;55.672;37.628;2023-04-03T08:28:44;99324.53;;;16.22;43.73
76205;BME280;64986;55.672;37.628;2023-04-03T08:31:14;99337.47;;;16.35;43.99
76205;BME280;64986;55.672;37.628;2023-04-03T08:33:40;99333.19;;;16.34;43.18
76205;BME280;64986;55.672;37.628;2023-04-03T08:36:15;99333.06;;;16.46;43.05
76205;BME280;64986;55.672;37.628;2023-04-03T08:38:41;99341.41;;;16.98;41.29
76205;BME280;64986;55.672;37.628;2023-04-03T08:41:20;99337.06;;;16.87;42.01
76205;BME280;64986;55.672;37.628;2023-04-03T08:47:20;99343.94;;;17.10;40.57
76205;BME280;64986;55.672;37.628;2023-04-03T08:49:56;99347.84;;;17.02;42.55
76205;BME280;64986;55.672;37.628;2023-04-03T08:52:41;99344.84;;;16.94;41.96
76205;BME280;64986;55.672;37.628;2023-04-03T08:58:12;99354.59;;;17.10;39.78
76205;BME280;64986;55.672;37.628;2023-04-03T09:01:00;99356.03;;;16.96;40.36
76205;BME280;64986;55.672;37.628;2023-04-03T09:03:34;99359.56;;;16.79;41.64
76205;BME280;64986;55.672;37.628;2023-04-03T09:06:05;99356.63;;;17.03;40.97
76205;BME280;64986;55.672;37.628;2023-04-03T09:11:26;99398.00;;;18.01;39.75
76205;BME280;64986;55.672;37.628;2023-04-03T09:14:03;99356.81;;;18.19;39.01
76205;BME280;64986;55.672;37.628;2023-04-03T09:16:43;99344.97;;;18.47;38.21
76205;BME280;64986;55.672;37.628;2023-04-03T09:19:36;99360.88;;;18.74;37.03
76205;BME280;64986;55.672;37.628;2023-04-03T09:22:34;99361.91;;;18.68;37.56
76205;BME280;64986;55.672;37.628;2023-04-03T09:25:12;99364.75;;;18.51;38.14
76205;BME280;64986;55.672;37.628;2023-04-03T09:27:38;99364.72;;;18.46;37.51
76205;BME280;64986;55.672;37.628;2023-04-03T09:30:04;99354.38;;;18.65;37.73
76205;BME280;64986;55.672;37.628;2023-04-03T09:32:34;99367.25;;;18.78;38.00
76205;BME280;64986;55.672;37.628;2023-04-03T09:37:41;99368.97;;;19.05;37.41
76205;BME280;64986;55.672;37.628;2023-04-03T09:40:32;99367.44;;;19.50;35.41
76205;BME280;64986;55.672;37.628;2023-04-03T09:43:27;99367.44;;;19.50;36.48
76205;BME280;64986;55.672;37.628;2023-04-03T09:45:54;99366.53;;;18.98;36.88
76205;BME280;64986;55.672;37.628;2023-04-03T09:48:25;99365.41;;;18.79;36.34
76205;BME280;64986;55.672;37.628;2023-04-03T09:53:42;99371.78;;;18.68;35.94
76205;BME280;64986;55.672;37.628;2023-04-03T09:58:44;99368.50;;;18.61;37.11
76205;BME280;64986;55.672;37.628;2023-04-03T10:04:21;99383.56;;;18.87;36.40
76205;BME280;64986;55.672;37.628;2023-04-03T10:06:53;99373.22;;;19.01;35.11
76205;BME280;64986;55.672;37.628;2023-04-03T10:09:31;99376.88;;;18.79;35.51
76205;BME280;64986;55.672;37.628;2023-04-03T10:12:11;99368.34;;;18.77;34.93
76205;BME280;64986;55.672;37.628;2023-04-03T10:14:53;99368.53;;;18.66;36.46
76205;BME280;64986;55.672;37.628;2023-04-03T10:17:44;99371.53;;;18.79;35.69
76205;BME280;64986;55.672;37.628;2023-04-03T10:36:45;99386.28;;;18.97;35.30
76205;BME280;64986;55.672;37.628;2023-04-03T10:45:04;99386.50;;;18.85;34.28
76205;BME280;64986;55.672;37.628;2023-04-03T10:55:50;99376.69;;;19.01;35.50
76205;BME280;64986;55.672;37.628;2023-04-03T10:58:32;99389.59;;;19.35;34.73
76205;BME280;64986;55.672;37.628;2023-04-03T11:01:07;99382.91;;;19.37;34.65
76205;BME280;64986;55.672;37.628;2023-04-03T11:03:36;99378.34;;;19.28;35.36
76205;BME280;64986;55.672;37.628;2023-04-03T11:06:09;99381.84;;;19.38;35.53
76205;BME280;64986;55.672;37.628;2023-04-03T11:11:20;99377.84;;;19.51;35.00
76205;BME280;64986;55.672;37.628;2023-04-03T11:14:01;99382.41;;;19.61;35.42
76205;BME280;64986;55.672;37.628;2023-04-03T11:16:30;99377.34;;;19.64;35.33
76205;BME280;64986;55.672;37.628;2023-04-03T11:19:02;99362.34;;;19.53;35.01
76205;BME280;64986;55.672;37.628;2023-04-03T11:21:49;99380.00;;;20.05;34.35
76205;BME280;64986;55.672;37.628;2023-04-03T11:24:22;99370.88;;;20.16;34.11
76205;BME280;64986;55.672;37.628;2023-04-03T11:26:50;99377.56;;;20.29;34.40
76205;BME280;64986;55.672;37.628;2023-04-03T11:29:38;99371.00;;;20.76;33.73
76205;BME280;64986;55.672;37.628;2023-04-03T11:34:59;99368.16;;;20.52;33.99
76205;BME280;64986;55.672;37.628;2023-04-03T11:37:43;99368.38;;;20.71;34.46
76205;BME280;64986;55.672;37.628;2023-04-03T11:42:48;99359.13;;;20.22;34.16
76205;BME280;64986;55.672;37.628;2023-04-03T11:45:40;99363.47;;;19.73;33.75
76205;BME280;64986;55.672;37.628;2023-04-03T11:50:46;99365.00;;;19.23;35.71
76205;BME280;64986;55.672;37.628;2023-04-03T11:58:16;99361.41;;;18.81;35.92
76205;BME280;64986;55.672;37.628;2023-04-03T12:14:02;99371.25;;;17.54;37.00
76205;BME280;64986;55.672;37.628;2023-04-03T12:16:28;99366.59;;;17.44;37.50
76205;BME280;64986;55.672;37.628;2023-04-03T12:27:03;99379.66;;;16.70;38.18
76205;BME280;64986;55.672;37.628;2023-04-03T12:32:25;99378.66;;;16.37;38.87
76205;BME280;64986;55.672;37.628;2023-04-03T12:43:47;99375.97;;;16.16;38.92
76205;BME280;64986;55.672;37.628;2023-04-03T12:46:18;99380.41;;;15.93;39.71
76205;BME280;64986;55.672;37.628;2023-04-03T12:51:30;99380.50;;;15.81;39.79
76205;BME280;64986;55.672;37.628;2023-04-03T12:54:23;99381.38;;;15.70;39.80
76205;BME280;64986;55.672;37.628;2023-04-03T12:56:51;99383.44;;;15.51;40.60
76205;BME280;64986;55.672;37.628;2023-04-03T12:59:26;99385.25;;;15.34;41.14
76205;BME280;64986;55.672;37.628;2023-04-03T13:02:00;99381.50;;;15.18;41.68
76205;BME280;64986;55.672;37.628;2023-04-03T13:04:31;99380.28;;;15.09;41.94
76205;BME280;64986;55.672;37.628;2023-04-03T13:06:57;99377.88;;;14.96;42.02
76205;BME280;64986;55.672;37.628;2023-04-03T13:12:01;99384.16;;;14.78;42.47
76205;BME280;64986;55.672;37.628;2023-04-03T13:14:28;99386.38;;;14.58;42.91
76205;BME280;64986;55.672;37.628;2023-04-03T13:17:03;99380.78;;;14.54;43.01
76205;BME280;64986;55.672;37.628;2023-04-03T13:19:29;99386.38;;;14.69;42.63
76205;BME280;64986;55.672;37.628;2023-04-03T13:22:04;99380.22;;;14.52;43.39
76205;BME280;64986;55.672;37.628;2023-04-03T13:24:34;99381.34;;;14.33;43.40
76205;BME280;64986;55.672;37.628;2023-04-03T13:27:02;99371.78;;;14.32;43.46
76205;BME280;64986;55.672;37.628;2023-04-03T13:29:33;99378.34;;;14.41;43.78
76205;BME280;64986;55.672;37.628;2023-04-03T13:32:00;99375.69;;;14.41;43.70
76205;BME280;64986;55.672;37.628;2023-04-03T13:34:28;99382.13;;;14.45;43.81
76205;BME280;64986;55.672;37.628;2023-04-03T13:37:00;99379.38;;;14.40;44.00
76205;BME280;64986;55.672;37.628;2023-04-03T13:39:29;99377.28;;;14.42;43.71
76205;BME280;64986;55.672;37.628;2023-04-03T13:42:15;99386.53;;;14.51;43.37
76205;BME280;64986;55.672;37.628;2023-04-03T13:44:41;99386.38;;;14.34;43.65
76205;BME280;64986;55.672;37.628;2023-04-03T13:49:41;99385.59;;;14.34;44.00
76205;BME280;64986;55.672;37.628;2023-04-03T13:52:30;99376.97;;;14.38;43.96
76205;BME280;64986;55.672;37.628;2023-04-03T13:55:15;99389.41;;;14.38;44.54
76205;BME280;64986;55.672;37.628;2023-04-03T13:57:58;99382.97;;;14.46;44.89
76205;BME280;64986;55.672;37.628;2023-04-03T14:00:38;99379.38;;;14.40;44.78
76205;BME280;64986;55.672;37.628;2023-04-03T14:05:45;99380.97;;;14.41;44.90
76205;BME280;64986;55.672;37.628;2023-04-03T14:08:10;99376.47;;;14.41;44.90
76205;BME280;64986;55.672;37.628;2023-04-03T14:10:36;99383.63;;;14.41;45.02
76205;BME280;64986;55.672;37.628;2023-04-03T14:13:02;99380.53;;;14.44;45.62
76205;BME280;64986;55.672;37.628;2023-04-03T14:15:30;99383.78;;;14.46;45.54
76205;BME280;64986;55.672;37.628;2023-04-03T14:17:56;99380.41;;;14.51;45.72
76205;BME280;64986;55.672;37.628;2023-04-03T14:20:24;99383.91;;;14.51;45.54
76205;BME280;64986;55.672;37.628;2023-04-03T14:22:51;99380.22;;;14.52;45.63
76205;BME280;64986;55.672;37.628;2023-04-03T14:25:17;99384.09;;;14.50;45.62
76205;BME280;64986;55.672;37.628;2023-04-03T14:27:46;99384.19;;;14.43;45.88
76205;BME280;64986;55.672;37.628;2023-04-03T14:30:16;99389.41;;;14.38;45.94
76205;BME280;64986;55.672;37.628;2023-04-03T14:32:42;99381.56;;;14.31;46.17
76205;BME280;64986;55.672;37.628;2023-04-03T14:35:08;99383.84;;;14.28;46.63
76205;BME280;64986;55.672;37.628;2023-04-03T14:37:34;99380.66;;;14.26;46.65
76205;BME280;64986;55.672;37.628;2023-04-03T14:40:02;99378.91;;;14.20;46.78
76205;BME280;64986;55.672;37.628;2023-04-03T14:42:36;99385.81;;;14.21;46.77
76205;BME280;64986;55.672;37.628;2023-04-03T14:45:05;99390.88;;;14.10;47.11
76205;BME280;64986;55.672;37.628;2023-04-03T14:47:32;99385.72;;;14.04;46.78
76205;BME280;64986;55.672;37.628;2023-04-03T14:50:00;99375.69;;;13.94;46.86
76205;BME280;64986;55.672;37.628;2023-04-03T14:52:32;99385.25;;;13.95;46.98
76205;BME280;64986;55.672;37.628;2023-04-03T14:54:59;99386.63;;;13.86;47.35
76205;BME280;64986;55.672;37.628;2023-04-03T14:57:27;99387.09;;;13.83;47.25
76205;BME280;64986;55.672;37.628;2023-04-03T14:59:53;99379.59;;;13.80;47.46
76205;BME280;64986;55.672;37.628;2023-04-03T15:02:37;99382.38;;;13.85;47.48